Time;durP1;ratioP1;P1;durP2;ratioP2;P2;SDS_P1;SDS_P2;PMS_P1;PMS_P2;Temp;Humidity;BMP_temperature;BMP_pressure;BME280_temperature;BME280_humidity;BME280_pressure;Samples;Min_cycle;Max_cycle;Signal;HPM_P1;HPM_P2
2022/04/10 00:00:49;;;;;;;0.77;0.50;;;;;;;;;;2084796;28;20042;-62
2022/04/10 00:02:07;;;;;;;0.65;0.60;;;;;;;;;;2082877;28;20041;-62
2022/04/10 00:03:26;;;;;;;0.65;0.52;;;;;;;;;;2084440;28;20041;-62
2022/04/10 00:04:45;;;;;;;0.70;0.60;;;;;;;;;;2084542;28;20025;-62
2022/04/10 00:06:04;;;;;;;0.47;0.47;;;;;;;;;;2083459;28;20034;-62
2022/04/10 00:07:23;;;;;;;0.77;0.40;;;;;;;;;;2083987;28;20029;-62
2022/04/10 00:08:42;;;;;;;0.55;0.55;;;;;;;;;;2084756;28;20392;-62
2022/04/10 00:10:01;;;;;;;0.73;0.60;;;;;;;;;;2084757;28;20029;-62
2022/04/10 00:11:20;;;;;;;0.70;0.63;;;;;;;;;;2084146;28;20033;-61
2022/04/10 00:12:39;;;;;;;1.17;0.52;;;;;;;;;;2085783;28;20063;-62
2022/04/10 00:13:58;;;;;;;1.23;0.60;;;;;;;;;;2083424;28;20109;-62
2022/04/10 00:15:17;;;;;;;0.50;0.50;;;;;;;;;;2084951;28;20029;-61
2022/04/10 00:16:36;;;;;;;1.10;0.90;;;;;;;;;;2081979;28;20029;-61
2022/04/10 00:17:55;;;;;;;0.85;0.50;;;;;;;;;;2084254;28;20033;-62
2022/04/10 00:19:17;;;;;;;0.65;0.57;;;;;;;;;;2084398;28;20041;-62
2022/04/10 00:20:36;;;;;;;0.52;0.50;;;;;;;;;;2083493;28;20422;-62
2022/04/10 00:21:55;;;;;;;0.40;0.40;;;;;;;;;;2081983;28;20029;-61
2022/04/10 00:23:14;;;;;;;0.77;0.77;;;;;;;;;;2082481;28;20391;-62
2022/04/10 00:24:33;;;;;;;1.75;0.55;;;;;;;;;;2073542;28;20038;-61
2022/04/10 00:25:51;;;;;;;1.08;0.70;;;;;;;;;;2079873;28;20033;-62
2022/04/10 00:27:13;;;;;;;0.70;0.50;;;;;;;;;;2081097;28;20029;-64
2022/04/10 00:28:32;;;;;;;0.88;0.60;;;;;;;;;;2085973;28;20017;-62
2022/04/10 00:29:51;;;;;;;0.40;0.40;;;;;;;;;;2085541;28;20120;-62
2022/04/10 00:31:10;;;;;;;0.50;0.50;;;;;;;;;;2083416;28;20056;-62
2022/04/10 00:32:29;;;;;;;0.63;0.55;;;;;;;;;;2083052;28;20021;-62
2022/04/10 00:33:48;;;;;;;0.50;0.35;;;;;;;;;;2076499;28;20033;-62
2022/04/10 00:35:08;;;;;;;0.63;0.50;;;;;;;;;;2079642;28;20053;-61
2022/04/10 00:36:27;;;;;;;0.40;0.40;;;;;;;;;;2086122;28;20021;-61
2022/04/10 00:37:46;;;;;;;0.77;0.40;;;;;;;;;;2084149;28;20033;-62
2022/04/10 00:39:05;;;;;;;0.55;0.50;;;;;;;;;;2085062;28;20034;-62
2022/04/10 00:40:24;;;;;;;0.50;0.50;;;;;;;;;;2082743;28;20030;-62
2022/04/10 00:41:43;;;;;;;0.95;0.85;;;;;;;;;;2083722;28;20102;-62
2022/04/10 00:43:02;;;;;;;2.30;0.60;;;;;;;;;;2085216;28;20033;-62
2022/04/10 00:44:20;;;;;;;0.60;0.50;;;;;;;;;;2083255;28;20382;-61
2022/04/10 00:45:39;;;;;;;0.50;0.50;;;;;;;;;;2083499;28;20104;-61
2022/04/10 00:46:58;;;;;;;0.55;0.55;;;;;;;;;;2074955;28;20241;-61
2022/04/10 00:48:17;;;;;;;0.47;0.47;;;;;;;;;;2080687;28;20495;-62
2022/04/10 00:49:36;;;;;;;0.55;0.55;;;;;;;;;;2084560;28;20036;-61
2022/04/10 00:52:35;;;;;;;1.17;0.43;;;;;;;;;;2082168;28;20018;-61
2022/04/10 00:53:54;;;;;;;0.70;0.60;;;;;;;;;;2084530;28;20108;-61
2022/04/10 00:55:14;;;;;;;0.80;0.40;;;;;;;;;;2085018;28;20363;-61
2022/04/10 00:56:33;;;;;;;0.60;0.47;;;;;;;;;;2082029;28;20029;-61
2022/04/10 00:57:53;;;;;;;0.88;0.52;;;;;;;;;;2085719;28;20037;-61
2022/04/10 00:59:12;;;;;;;3.10;0.45;;;;;;;;;;2083798;28;20026;-61
2022/04/10 01:00:31;;;;;;;0.50;0.45;;;;;;;;;;2085013;28;20482;-61
2022/04/10 01:01:50;;;;;;;2.05;0.50;;;;;;;;;;2085445;28;20037;-61
2022/04/10 01:03:09;;;;;;;1.13;0.45;;;;;;;;;;2082480;28;20038;-61
2022/04/10 01:04:27;;;;;;;2.30;0.52;;;;;;;;;;2084364;28;20034;-61
2022/04/10 01:05:47;;;;;;;0.30;0.30;;;;;;;;;;2073323;28;20026;-62
2022/04/10 01:07:06;;;;;;;0.50;0.50;;;;;;;;;;2082808;28;20105;-61
2022/04/10 01:08:25;;;;;;;0.82;0.60;;;;;;;;;;2083960;28;20034;-62
2022/04/10 01:09:46;;;;;;;0.68;0.68;;;;;;;;;;2074393;28;20034;-61
2022/04/10 01:11:06;;;;;;;1.58;0.32;;;;;;;;;;2081438;28;20029;-61
2022/04/10 01:12:25;;;;;;;2.03;0.32;;;;;;;;;;2083469;28;20037;-61
2022/04/10 01:13:44;;;;;;;0.50;0.50;;;;;;;;;;2080521;28;20018;-61
2022/04/10 01:15:04;;;;;;;0.50;0.50;;;;;;;;;;2084101;28;20026;-61
2022/04/10 01:16:23;;;;;;;0.50;0.50;;;;;;;;;;2084846;28;20432;-61
2022/04/10 01:17:43;;;;;;;0.60;0.60;;;;;;;;;;2081899;28;20029;-61
2022/04/10 01:19:03;;;;;;;1.05;0.70;;;;;;;;;;2083743;28;20406;-61
2022/04/10 01:20:22;;;;;;;0.50;0.50;;;;;;;;;;2083456;28;20025;-61
2022/04/10 01:21:46;;;;;;;0.77;0.52;;;;;;;;;;2084565;28;20503;-62
2022/04/10 01:23:06;;;;;;;0.70;0.50;;;;;;;;;;2082790;28;20022;-62
2022/04/10 01:24:25;;;;;;;0.57;0.57;;;;;;;;;;2082603;28;20037;-62
2022/04/10 01:25:44;;;;;;;2.50;0.47;;;;;;;;;;2084600;28;20061;-63
2022/04/10 01:27:04;;;;;;;1.00;0.50;;;;;;;;;;2083769;28;20029;-63
2022/04/10 01:28:22;;;;;;;0.50;0.50;;;;;;;;;;2082341;28;20482;-62
2022/04/10 01:29:41;;;;;;;0.52;0.52;;;;;;;;;;2084388;28;20431;-62
2022/04/10 01:31:00;;;;;;;1.92;0.63;;;;;;;;;;2081319;28;20033;-61
2022/04/10 01:32:19;;;;;;;0.52;0.40;;;;;;;;;;2083026;28;20033;-63
2022/04/10 01:33:38;;;;;;;0.32;0.32;;;;;;;;;;2085618;28;20029;-61
2022/04/10 01:34:59;;;;;;;1.45;0.55;;;;;;;;;;2083788;28;20482;-62
2022/04/10 01:36:18;;;;;;;0.90;0.60;;;;;;;;;;2084561;28;20034;-61
2022/04/10 01:37:38;;;;;;;0.50;0.50;;;;;;;;;;2083418;28;20021;-62
2022/04/10 01:38:59;;;;;;;0.40;0.40;;;;;;;;;;2084491;28;20479;-62
2022/04/10 01:40:19;;;;;;;0.52;0.40;;;;;;;;;;2084006;28;20430;-62
2022/04/10 01:41:38;;;;;;;0.95;0.30;;;;;;;;;;2083208;28;20029;-62
2022/04/10 01:42:56;;;;;;;0.47;0.40;;;;;;;;;;2083146;28;20395;-61
2022/04/10 01:44:15;;;;;;;0.63;0.63;;;;;;;;;;2084606;28;20064;-61
2022/04/10 01:45:34;;;;;;;1.88;0.70;;;;;;;;;;2082339;28;20041;-62
2022/04/10 01:46:53;;;;;;;0.38;0.38;;;;;;;;;;2086255;28;20472;-63
2022/04/10 01:48:12;;;;;;;2.10;0.68;;;;;;;;;;2075506;28;20034;-62
2022/04/10 01:49:30;;;;;;;1.08;0.60;;;;;;;;;;2080885;28;20519;-62
2022/04/10 01:50:49;;;;;;;0.75;0.50;;;;;;;;;;2083870;28;20487;-62
2022/04/10 01:52:08;;;;;;;0.50;0.50;;;;;;;;;;2082610;28;20022;-62
2022/04/10 01:53:27;;;;;;;1.33;0.52;;;;;;;;;;2082627;28;20029;-62
2022/04/10 01:54:46;;;;;;;0.60;0.45;;;;;;;;;;2084714;28;20457;-62
2022/04/10 01:56:07;;;;;;;0.80;0.50;;;;;;;;;;2085548;28;20029;-62
2022/04/10 01:57:26;;;;;;;1.17;0.52;;;;;;;;;;2083354;28;20030;-62
2022/04/10 01:58:46;;;;;;;0.47;0.47;;;;;;;;;;2074713;28;20034;-62
2022/04/10 02:00:06;;;;;;;1.13;0.60;;;;;;;;;;2079464;28;20045;-62
2022/04/10 02:01:25;;;;;;;0.65;0.65;;;;;;;;;;2083177;28;20037;-62
2022/04/10 02:02:44;;;;;;;1.13;0.90;;;;;;;;;;2079938;28;20487;-62
2022/04/10 02:04:03;;;;;;;1.95;0.70;;;;;;;;;;2084180;28;20029;-61
2022/04/10 02:05:22;;;;;;;0.40;0.40;;;;;;;;;;2083373;28;20048;-62
2022/04/10 02:06:40;;;;;;;1.52;0.50;;;;;;;;;;2086291;28;20410;-61
2022/04/10 02:07:59;;;;;;;0.50;0.43;;;;;;;;;;2076713;28;20026;-62
2022/04/10 02:09:18;;;;;;;2.60;0.50;;;;;;;;;;2080601;28;20033;-62
2022/04/10 02:10:37;;;;;;;1.15;0.80;;;;;;;;;;2083577;28;20080;-61
2022/04/10 02:11:56;;;;;;;1.58;0.45;;;;;;;;;;2082286;28;20050;-61
2022/04/10 02:13:15;;;;;;;0.43;0.43;;;;;;;;;;2083629;28;20033;-62
2022/04/10 02:14:34;;;;;;;0.68;0.50;;;;;;;;;;2083470;28;20026;-62
2022/04/10 02:15:53;;;;;;;1.67;0.70;;;;;;;;;;2083760;28;20060;-61
2022/04/10 02:17:12;;;;;;;0.70;0.52;;;;;;;;;;2084342;28;20033;-61
2022/04/10 02:18:31;;;;;;;0.98;0.60;;;;;;;;;;2086544;28;20104;-61
2022/04/10 02:19:50;;;;;;;0.73;0.60;;;;;;;;;;2083135;28;20030;-62
2022/04/10 02:21:10;;;;;;;0.43;0.40;;;;;;;;;;2076610;28;20034;-62
2022/04/10 02:22:29;;;;;;;0.85;0.50;;;;;;;;;;2082224;28;20119;-62
2022/04/10 02:23:48;;;;;;;1.27;0.70;;;;;;;;;;2085417;28;20037;-61
2022/04/10 02:25:07;;;;;;;1.15;0.57;;;;;;;;;;2086169;28;20033;-68
2022/04/10 02:26:26;;;;;;;0.60;0.47;;;;;;;;;;2086211;28;20488;-62
2022/04/10 02:27:46;;;;;;;1.30;0.63;;;;;;;;;;2084168;28;20045;-62
2022/04/10 02:29:04;;;;;;;0.98;0.70;;;;;;;;;;2082787;28;20021;-62
2022/04/10 02:30:23;;;;;;;1.00;0.82;;;;;;;;;;2083802;28;20033;-62
2022/04/10 02:31:42;;;;;;;0.50;0.50;;;;;;;;;;2085054;28;20026;-62
2022/04/10 02:33:01;;;;;;;1.40;0.60;;;;;;;;;;2085131;28;20502;-62
2022/04/10 02:34:20;;;;;;;0.60;0.60;;;;;;;;;;2076238;28;20065;-62
2022/04/10 02:35:43;;;;;;;0.40;0.40;;;;;;;;;;2074623;28;20030;-62
2022/04/10 02:37:02;;;;;;;1.98;0.60;;;;;;;;;;2080734;28;20371;-62
2022/04/10 02:38:21;;;;;;;2.70;0.75;;;;;;;;;;2085590;28;20036;-61
2022/04/10 02:39:40;;;;;;;0.50;0.50;;;;;;;;;;2083400;28;20120;-62
2022/04/10 02:40:59;;;;;;;0.30;0.30;;;;;;;;;;2076317;28;20034;-62
2022/04/10 02:42:18;;;;;;;0.47;0.30;;;;;;;;;;2082431;28;20447;-62
2022/04/10 02:43:40;;;;;;;0.68;0.50;;;;;;;;;;2087387;28;20033;-62
2022/04/10 02:44:59;;;;;;;1.95;0.70;;;;;;;;;;2084370;28;20037;-61
2022/04/10 02:46:18;;;;;;;1.90;0.60;;;;;;;;;;2075649;28;20030;-62
2022/04/10 02:47:37;;;;;;;2.13;0.43;;;;;;;;;;2082561;28;20026;-62
2022/04/10 02:48:56;;;;;;;0.93;0.60;;;;;;;;;;2083127;28;20448;-62
2022/04/10 02:50:15;;;;;;;0.98;0.70;;;;;;;;;;2086037;28;20033;-62
2022/04/10 02:51:34;;;;;;;1.42;0.50;;;;;;;;;;2085225;28;20018;-62
2022/04/10 02:52:54;;;;;;;0.40;0.40;;;;;;;;;;2082828;28;20388;-62
2022/04/10 02:54:13;;;;;;;2.22;0.45;;;;;;;;;;2083857;28;20034;-62
2022/04/10 02:55:32;;;;;;;1.38;1.00;;;;;;;;;;2086213;28;20033;-62
2022/04/10 02:56:51;;;;;;;0.95;0.40;;;;;;;;;;2076250;28;20022;-62
2022/04/10 02:58:10;;;;;;;1.25;0.47;;;;;;;;;;2082619;28;20430;-63
2022/04/10 02:59:29;;;;;;;0.60;0.50;;;;;;;;;;2086096;28;20041;-62
2022/04/10 03:00:48;;;;;;;0.52;0.50;;;;;;;;;;2085414;28;20179;-62
2022/04/10 03:02:07;;;;;;;0.50;0.45;;;;;;;;;;2074959;28;20026;-61
2022/04/10 03:03:26;;;;;;;0.80;0.70;;;;;;;;;;2078978;28;20029;-62
2022/04/10 03:04:45;;;;;;;0.60;0.40;;;;;;;;;;2082014;28;20017;-62
2022/04/10 03:06:04;;;;;;;0.40;0.40;;;;;;;;;;2085370;28;20446;-61
2022/04/10 03:07:23;;;;;;;1.50;0.40;;;;;;;;;;2085089;28;20053;-62
2022/04/10 03:08:42;;;;;;;0.60;0.50;;;;;;;;;;2087011;28;20033;-62
2022/04/10 03:10:01;;;;;;;0.65;0.52;;;;;;;;;;2084826;28;20029;-62
2022/04/10 03:11:20;;;;;;;0.60;0.43;;;;;;;;;;2083967;28;20033;-62
2022/04/10 03:12:39;;;;;;;0.60;0.50;;;;;;;;;;2083982;28;20033;-62
2022/04/10 03:13:58;;;;;;;0.98;0.40;;;;;;;;;;2086141;28;20105;-61
2022/04/10 03:15:17;;;;;;;0.47;0.40;;;;;;;;;;2085234;28;20120;-62
2022/04/10 03:16:36;;;;;;;1.40;0.50;;;;;;;;;;2082625;28;20108;-61
2022/04/10 03:17:55;;;;;;;2.10;0.40;;;;;;;;;;2084587;28;20115;-62
2022/04/10 03:19:14;;;;;;;0.68;0.50;;;;;;;;;;2087053;28;20431;-62
2022/04/10 03:20:33;;;;;;;1.30;0.40;;;;;;;;;;2086317;28;20037;-62
2022/04/10 03:21:52;;;;;;;1.95;0.50;;;;;;;;;;2083331;28;20057;-62
2022/04/10 03:23:11;;;;;;;1.00;0.47;;;;;;;;;;2082921;28;20026;-61
2022/04/10 03:24:30;;;;;;;0.70;0.50;;;;;;;;;;2083783;28;20029;-62
2022/04/10 03:25:48;;;;;;;0.40;0.40;;;;;;;;;;2084115;28;20069;-61
2022/04/10 03:27:07;;;;;;;1.75;0.57;;;;;;;;;;2085901;28;20021;-61
2022/04/10 03:28:26;;;;;;;0.40;0.40;;;;;;;;;;2088630;28;20478;-62
2022/04/10 03:29:45;;;;;;;0.60;0.50;;;;;;;;;;2084586;28;20030;-61
2022/04/10 03:31:04;;;;;;;1.17;0.50;;;;;;;;;;2083592;28;20026;-61
2022/04/10 03:32:23;;;;;;;0.77;0.52;;;;;;;;;;2085248;28;20041;-62
2022/04/10 03:33:42;;;;;;;1.20;0.68;;;;;;;;;;2085397;28;20069;-61
2022/04/10 03:35:01;;;;;;;1.02;0.52;;;;;;;;;;2085364;28;20498;-61
2022/04/10 03:36:20;;;;;;;0.55;0.55;;;;;;;;;;2082379;28;20025;-61
2022/04/10 03:37:40;;;;;;;0.77;0.52;;;;;;;;;;2084151;28;20020;-61
2022/04/10 03:38:58;;;;;;;0.57;0.50;;;;;;;;;;2084325;28;20064;-61
2022/04/10 03:40:17;;;;;;;0.50;0.50;;;;;;;;;;2083188;28;20048;-62
2022/04/10 03:41:36;;;;;;;1.77;0.80;;;;;;;;;;2082450;28;20025;-62
2022/04/10 03:42:55;;;;;;;0.63;0.40;;;;;;;;;;2084432;28;20512;-62
2022/04/10 03:44:14;;;;;;;1.33;0.65;;;;;;;;;;2084632;28;20025;-61
2022/04/10 03:45:33;;;;;;;0.70;0.47;;;;;;;;;;2083624;28;20029;-61
2022/04/10 03:46:52;;;;;;;1.25;0.65;;;;;;;;;;2080359;28;20022;-62
2022/04/10 03:48:11;;;;;;;0.77;0.60;;;;;;;;;;2083868;28;20029;-62
2022/04/10 03:49:30;;;;;;;0.50;0.40;;;;;;;;;;2084303;28;20026;-61
2022/04/10 03:50:49;;;;;;;1.08;0.50;;;;;;;;;;2081030;28;20037;-62
2022/04/10 03:52:08;;;;;;;1.95;0.70;;;;;;;;;;2083808;28;21107;-62
2022/04/10 03:53:27;;;;;;;1.70;0.70;;;;;;;;;;2083588;28;20018;-62
2022/04/10 03:54:46;;;;;;;0.50;0.50;;;;;;;;;;2084667;28;20034;-61
2022/04/10 03:56:05;;;;;;;1.30;0.75;;;;;;;;;;2074280;28;20029;-61
2022/04/10 03:57:24;;;;;;;0.82;0.50;;;;;;;;;;2080241;28;20026;-61
2022/04/10 03:58:43;;;;;;;2.20;0.60;;;;;;;;;;2075117;28;20034;-61
2022/04/10 04:00:03;;;;;;;1.17;0.50;;;;;;;;;;2079830;28;20041;-61
2022/04/10 04:01:21;;;;;;;1.33;0.50;;;;;;;;;;2080624;28;20033;-61
2022/04/10 04:02:41;;;;;;;2.60;0.52;;;;;;;;;;2083512;28;20021;-61
2022/04/10 04:04:00;;;;;;;0.63;0.47;;;;;;;;;;2082712;28;20037;-62
2022/04/10 04:05:19;;;;;;;1.13;0.65;;;;;;;;;;2084636;28;20155;-61
2022/04/10 04:06:38;;;;;;;0.55;0.55;;;;;;;;;;2084320;28;20038;-61
2022/04/10 04:07:57;;;;;;;0.50;0.38;;;;;;;;;;2087121;28;20021;-62
2022/04/10 04:09:16;;;;;;;0.60;0.40;;;;;;;;;;2083934;28;20060;-62
2022/04/10 04:10:35;;;;;;;0.70;0.50;;;;;;;;;;2085693;28;20029;-61
2022/04/10 04:11:54;;;;;;;1.05;0.80;;;;;;;;;;2080768;28;20041;-61
2022/04/10 04:13:13;;;;;;;0.63;0.60;;;;;;;;;;2083948;28;20503;-61
2022/04/10 04:14:31;;;;;;;0.52;0.50;;;;;;;;;;2083789;28;20017;-61
2022/04/10 04:15:50;;;;;;;0.75;0.52;;;;;;;;;;2084990;28;20487;-61
2022/04/10 04:17:09;;;;;;;1.73;0.77;;;;;;;;;;2084471;28;20037;-62
2022/04/10 04:18:28;;;;;;;1.30;0.55;;;;;;;;;;2086038;28;20034;-62
2022/04/10 04:19:50;;;;;;;0.75;0.47;;;;;;;;;;2086278;28;20029;-61
2022/04/10 04:21:09;;;;;;;0.50;0.50;;;;;;;;;;2085528;28;20111;-61
2022/04/10 04:22:27;;;;;;;1.13;0.50;;;;;;;;;;2084253;28;20033;-62
2022/04/10 04:23:48;;;;;;;1.50;0.77;;;;;;;;;;2083189;28;20025;-62
2022/04/10 04:25:07;;;;;;;1.70;0.88;;;;;;;;;;2077968;28;20037;-62
2022/04/10 04:26:26;;;;;;;1.02;0.70;;;;;;;;;;2081707;28;20037;-61
2022/04/10 04:27:45;;;;;;;0.95;0.57;;;;;;;;;;2083877;28;20026;-62
2022/04/10 04:29:03;;;;;;;0.43;0.40;;;;;;;;;;2086481;28;20504;-62
2022/04/10 04:30:22;;;;;;;0.70;0.70;;;;;;;;;;2083152;28;20021;-62
2022/04/10 04:31:41;;;;;;;1.02;0.73;;;;;;;;;;2083667;28;20025;-61
2022/04/10 04:33:01;;;;;;;3.22;0.70;;;;;;;;;;2103798;22;20021;-81
2022/04/10 04:34:21;;;;;;;2.20;0.68;;;;;;;;;;2089351;28;20045;-82
2022/04/10 04:35:39;;;;;;;0.80;0.55;;;;;;;;;;2081772;28;20510;-81
2022/04/10 04:36:58;;;;;;;1.75;0.77;;;;;;;;;;2092936;28;20502;-81
2022/04/10 04:38:17;;;;;;;0.77;0.60;;;;;;;;;;2089652;28;20029;-82
2022/04/10 04:39:37;;;;;;;1.38;0.60;;;;;;;;;;2095424;28;20478;-81
2022/04/10 04:40:56;;;;;;;0.57;0.57;;;;;;;;;;2088505;28;20482;-82
2022/04/10 04:42:15;;;;;;;1.58;0.40;;;;;;;;;;2093002;28;20033;-81
2022/04/10 04:43:34;;;;;;;1.42;0.60;;;;;;;;;;2089266;28;20033;-81
2022/04/10 04:44:52;;;;;;;0.82;0.65;;;;;;;;;;2094810;28;20466;-81
2022/04/10 04:46:12;;;;;;;0.85;0.55;;;;;;;;;;2097423;28;20032;-81
2022/04/10 04:47:31;;;;;;;1.13;0.60;;;;;;;;;;2097830;28;20028;-81
2022/04/10 04:48:49;;;;;;;1.48;0.95;;;;;;;;;;2087956;28;20029;-81
2022/04/10 04:50:08;;;;;;;0.95;0.90;;;;;;;;;;2084871;28;20020;-81
2022/04/10 04:51:28;;;;;;;0.60;0.40;;;;;;;;;;2085108;28;20087;-80
2022/04/10 04:52:47;;;;;;;1.73;0.70;;;;;;;;;;2081203;28;20088;-81
2022/04/10 04:54:08;;;;;;;0.50;0.50;;;;;;;;;;2092930;28;20117;-80
2022/04/10 04:55:27;;;;;;;1.40;0.70;;;;;;;;;;2088573;28;20029;-82
2022/04/10 04:56:46;;;;;;;0.75;0.65;;;;;;;;;;2084929;28;20025;-81
2022/04/10 04:58:05;;;;;;;2.25;0.63;;;;;;;;;;2091991;28;20115;-81
2022/04/10 04:59:24;;;;;;;2.38;0.88;;;;;;;;;;2089284;28;20119;-81
2022/04/10 05:00:44;;;;;;;3.17;0.80;;;;;;;;;;2093440;28;20024;-81
2022/04/10 05:02:11;;;;;;;0.70;0.63;;;;;;;;;;2081503;28;20065;-81
2022/04/10 05:03:30;;;;;;;1.02;0.82;;;;;;;;;;2092399;28;20032;-82
2022/04/10 05:04:51;;;;;;;0.80;0.68;;;;;;;;;;2093027;28;20506;-81
2022/04/10 05:06:12;;;;;;;0.60;0.60;;;;;;;;;;2086007;28;20033;-82
2022/04/10 05:07:31;;;;;;;0.65;0.63;;;;;;;;;;2086474;28;20029;-80
2022/04/10 05:08:57;;;;;;;1.45;0.70;;;;;;;;;;2085438;28;20021;-80
2022/04/10 05:10:16;;;;;;;1.48;0.50;;;;;;;;;;2086726;28;20533;-80
2022/04/10 05:11:34;;;;;;;4.03;0.63;;;;;;;;;;2083143;28;20025;-81
2022/04/10 05:12:53;;;;;;;1.95;0.50;;;;;;;;;;2086379;28;20028;-80
2022/04/10 05:14:12;;;;;;;1.00;0.60;;;;;;;;;;2081328;28;20037;-81
2022/04/10 05:15:30;;;;;;;0.50;0.50;;;;;;;;;;2077160;28;20030;-80
2022/04/10 05:16:49;;;;;;;1.40;0.80;;;;;;;;;;2076888;28;20116;-80
2022/04/10 05:18:08;;;;;;;1.38;0.60;;;;;;;;;;2078194;28;20522;-79
2022/04/10 05:19:27;;;;;;;0.77;0.52;;;;;;;;;;2078409;28;20487;-81
2022/04/10 05:20:46;;;;;;;0.90;0.52;;;;;;;;;;2075287;28;20037;-81
2022/04/10 05:22:05;;;;;;;0.82;0.52;;;;;;;;;;2084141;28;20028;-82
2022/04/10 05:23:27;;;;;;;1.42;0.73;;;;;;;;;;2088164;28;20123;-82
2022/04/10 05:24:46;;;;;;;0.93;0.75;;;;;;;;;;2090489;28;20037;-80
2022/04/10 05:26:05;;;;;;;0.90;0.65;;;;;;;;;;2079441;28;20531;-79
2022/04/10 05:27:25;;;;;;;1.08;0.70;;;;;;;;;;2086571;28;20018;-80
2022/04/10 05:28:44;;;;;;;0.80;0.63;;;;;;;;;;2080941;28;20033;-83
2022/04/10 05:30:03;;;;;;;1.05;0.90;;;;;;;;;;2081113;28;20101;-81
2022/04/10 05:31:25;;;;;;;1.02;0.70;;;;;;;;;;2085102;28;20037;-80
2022/04/10 05:32:44;;;;;;;1.60;0.70;;;;;;;;;;2080732;28;20037;-79
2022/04/10 05:34:03;;;;;;;0.60;0.60;;;;;;;;;;2075320;28;20046;-79
2022/04/10 05:35:22;;;;;;;0.70;0.68;;;;;;;;;;2077238;28;20033;-79
2022/04/10 05:38:25;;;;;;;0.70;0.70;;;;;;;;;;2090723;28;20433;-81
2022/04/10 05:39:45;;;;;;;1.08;0.70;;;;;;;;;;2088493;28;20025;-79
2022/04/10 05:41:09;;;;;;;1.00;0.88;;;;;;;;;;2081440;28;20089;-80
2022/04/10 05:42:28;;;;;;;0.60;0.60;;;;;;;;;;2086703;28;20029;-79
2022/04/10 05:43:48;;;;;;;2.00;0.70;;;;;;;;;;2082148;28;20470;-79
2022/04/10 05:45:10;;;;;;;1.10;0.57;;;;;;;;;;2088889;28;20371;-80
2022/04/10 05:46:29;;;;;;;0.50;0.50;;;;;;;;;;2080644;28;20017;-79
2022/04/10 05:47:48;;;;;;;1.02;0.63;;;;;;;;;;2087124;28;20025;-79
2022/04/10 05:49:07;;;;;;;1.10;0.88;;;;;;;;;;2080748;28;20034;-79
2022/04/10 05:50:26;;;;;;;1.58;0.50;;;;;;;;;;2083474;28;20084;-81
2022/04/10 05:51:52;;;;;;;1.00;0.60;;;;;;;;;;2078857;28;20445;-80
2022/04/10 05:53:10;;;;;;;1.33;0.70;;;;;;;;;;2082019;28;20498;-79
2022/04/10 05:54:29;;;;;;;1.17;0.82;;;;;;;;;;2077913;28;20025;-82
2022/04/10 05:55:48;;;;;;;0.93;0.52;;;;;;;;;;2087205;28;20029;-83
2022/04/10 05:57:07;;;;;;;0.77;0.60;;;;;;;;;;2080339;28;20065;-82
2022/04/10 05:58:26;;;;;;;2.50;0.40;;;;;;;;;;2088766;28;20037;-84
2022/04/10 05:59:45;;;;;;;0.60;0.50;;;;;;;;;;2081610;28;20045;-81
2022/04/10 06:01:03;;;;;;;1.83;0.60;;;;;;;;;;2082733;28;20029;-82
2022/04/10 06:02:23;;;;;;;0.80;0.80;;;;;;;;;;2085968;28;20021;-80
2022/04/10 06:03:41;;;;;;;0.50;0.50;;;;;;;;;;2082975;28;20034;-79
2022/04/10 06:05:03;;;;;;;1.38;0.50;;;;;;;;;;2079286;28;20037;-80
2022/04/10 06:06:22;;;;;;;0.65;0.40;;;;;;;;;;2080311;28;20050;-80
2022/04/10 06:07:41;;;;;;;1.33;0.60;;;;;;;;;;2078417;28;20462;-81
2022/04/10 06:09:00;;;;;;;0.88;0.55;;;;;;;;;;2087152;28;20115;-79
2022/04/10 06:10:19;;;;;;;1.05;0.45;;;;;;;;;;2089363;28;20021;-80
2022/04/10 06:11:38;;;;;;;1.27;0.50;;;;;;;;;;2081497;28;20108;-80
2022/04/10 06:13:10;;;;;;;1.33;0.60;;;;;;;;;;2082435;28;20030;-80
2022/04/10 06:14:29;;;;;;;1.13;0.52;;;;;;;;;;2081105;28;20037;-80
2022/04/10 06:15:48;;;;;;;1.27;0.52;;;;;;;;;;2080086;28;20037;-81
2022/04/10 06:17:09;;;;;;;0.50;0.50;;;;;;;;;;2078541;28;20033;-80
2022/04/10 06:18:29;;;;;;;0.80;0.50;;;;;;;;;;2079853;28;20841;-81
2022/04/10 06:19:47;;;;;;;0.40;0.40;;;;;;;;;;2079334;28;20056;-80
2022/04/10 06:21:06;;;;;;;3.13;0.50;;;;;;;;;;2087922;28;20502;-82
2022/04/10 06:22:26;;;;;;;1.38;0.50;;;;;;;;;;2081857;28;20037;-81
2022/04/10 06:23:45;;;;;;;0.43;0.35;;;;;;;;;;2080188;28;20034;-82
2022/04/10 06:25:33;;;;;;;0.50;0.40;;;;;;;;;;2079582;28;20025;-82
2022/04/10 06:26:56;;;;;;;0.93;0.40;;;;;;;;;;2081219;28;20021;-80
2022/04/10 06:28:15;;;;;;;1.25;0.40;;;;;;;;;;2087472;28;20025;-80
2022/04/10 06:29:33;;;;;;;0.30;0.30;;;;;;;;;;2082149;28;20030;-79
2022/04/10 06:30:55;;;;;;;1.45;0.73;;;;;;;;;;2080185;28;20033;-82
2022/04/10 06:32:15;;;;;;;0.35;0.30;;;;;;;;;;2078094;28;20022;-81
2022/04/10 06:33:34;;;;;;;1.02;0.47;;;;;;;;;;2086886;28;20045;-81
2022/04/10 06:34:52;;;;;;;0.43;0.40;;;;;;;;;;2082407;28;20574;-81
2022/04/10 06:36:11;;;;;;;0.60;0.60;;;;;;;;;;2078908;28;20042;-81
2022/04/10 06:37:30;;;;;;;1.08;0.55;;;;;;;;;;2078599;28;20021;-79
2022/04/10 06:38:52;;;;;;;0.55;0.40;;;;;;;;;;2079107;28;20068;-80
2022/04/10 06:40:12;;;;;;;0.70;0.40;;;;;;;;;;2087635;28;20033;-80
2022/04/10 06:41:31;;;;;;;0.40;0.40;;;;;;;;;;2083195;28;20038;-81
2022/04/10 06:42:50;;;;;;;1.48;0.40;;;;;;;;;;2078484;28;20037;-80
2022/04/10 06:44:09;;;;;;;0.70;0.40;;;;;;;;;;2080392;28;20033;-79
2022/04/10 06:45:28;;;;;;;0.32;0.30;;;;;;;;;;2086755;28;20037;-80
2022/04/10 06:46:47;;;;;;;0.30;0.30;;;;;;;;;;2082040;28;20108;-80
2022/04/10 06:48:06;;;;;;;1.00;0.35;;;;;;;;;;2086087;28;20505;-80
2022/04/10 06:49:25;;;;;;;0.30;0.30;;;;;;;;;;2091742;28;20040;-83
2022/04/10 06:50:44;;;;;;;1.00;0.50;;;;;;;;;;2082349;28;20034;-80
2022/04/10 06:52:03;;;;;;;0.95;0.50;;;;;;;;;;2085428;28;20025;-80
2022/04/10 06:53:22;;;;;;;0.32;0.30;;;;;;;;;;2081453;28;20022;-80
2022/04/10 06:54:41;;;;;;;0.47;0.47;;;;;;;;;;2078989;28;20979;-80
2022/04/10 06:56:00;;;;;;;0.60;0.32;;;;;;;;;;2078302;28;20029;-80
2022/04/10 06:57:18;;;;;;;0.20;0.20;;;;;;;;;;2079209;28;20044;-81
2022/04/10 06:58:37;;;;;;;0.40;0.40;;;;;;;;;;2076539;28;20418;-80
2022/04/10 06:59:56;;;;;;;0.40;0.30;;;;;;;;;;2078609;28;20033;-80
2022/04/10 07:01:15;;;;;;;0.57;0.43;;;;;;;;;;2085853;28;20048;-81
2022/04/10 07:02:35;;;;;;;1.65;0.45;;;;;;;;;;2089430;28;20033;-80
2022/04/10 07:03:54;;;;;;;1.15;0.32;;;;;;;;;;2081684;28;20033;-80
2022/04/10 07:05:15;;;;;;;1.40;0.50;;;;;;;;;;2081906;28;20112;-79
2022/04/10 07:06:35;;;;;;;0.45;0.30;;;;;;;;;;2079051;28;20025;-80
2022/04/10 07:07:54;;;;;;;0.63;0.30;;;;;;;;;;2077792;28;20022;-80
2022/04/10 07:09:14;;;;;;;0.80;0.30;;;;;;;;;;2086981;28;20017;-81
2022/04/10 07:10:33;;;;;;;0.75;0.40;;;;;;;;;;2081928;28;20053;-81
2022/04/10 07:11:52;;;;;;;0.40;0.35;;;;;;;;;;2078576;28;20072;-79
2022/04/10 07:13:17;;;;;;;0.98;0.30;;;;;;;;;;2079342;28;20025;-80
2022/04/10 07:14:37;;;;;;;0.47;0.35;;;;;;;;;;2080735;28;20029;-79
2022/04/10 07:15:58;;;;;;;0.57;0.40;;;;;;;;;;2078496;28;20045;-81
2022/04/10 07:17:17;;;;;;;0.65;0.40;;;;;;;;;;2079099;28;20118;-79
2022/04/10 07:18:36;;;;;;;0.38;0.38;;;;;;;;;;2078516;28;20033;-80
2022/04/10 07:19:55;;;;;;;0.47;0.20;;;;;;;;;;2078646;28;20069;-80
2022/04/10 07:21:14;;;;;;;0.75;0.22;;;;;;;;;;2087444;28;20061;-80
2022/04/10 07:24:13;;;;;;;0.35;0.35;;;;;;;;;;2089114;28;20029;-80
2022/04/10 07:25:32;;;;;;;0.20;0.20;;;;;;;;;;2089784;28;20068;-80
2022/04/10 07:26:52;;;;;;;0.95;0.28;;;;;;;;;;2082253;28;20030;-79
2022/04/10 07:28:11;;;;;;;0.30;0.30;;;;;;;;;;2081840;28;20037;-79
2022/04/10 07:29:32;;;;;;;0.60;0.60;;;;;;;;;;2086418;28;20490;-79
2022/04/10 07:30:51;;;;;;;0.40;0.40;;;;;;;;;;2089861;28;20033;-79
2022/04/10 07:32:10;;;;;;;0.50;0.28;;;;;;;;;;2081899;28;20025;-79
2022/04/10 07:33:29;;;;;;;1.75;0.50;;;;;;;;;;2081323;28;20041;-80
2022/04/10 07:34:48;;;;;;;1.17;0.20;;;;;;;;;;2087883;28;20037;-79
2022/04/10 07:36:10;;;;;;;0.32;0.28;;;;;;;;;;2090525;28;20076;-79
2022/04/10 07:37:29;;;;;;;1.08;0.30;;;;;;;;;;2090563;28;20025;-79
2022/04/10 07:38:48;;;;;;;3.22;0.35;;;;;;;;;;2080488;28;20041;-80
2022/04/10 07:40:07;;;;;;;2.10;0.32;;;;;;;;;;2079427;28;20050;-79
2022/04/10 07:41:26;;;;;;;0.60;0.28;;;;;;;;;;2087220;28;20029;-80
2022/04/10 07:42:47;;;;;;;0.68;0.40;;;;;;;;;;2084307;28;20029;-78
2022/04/10 07:44:06;;;;;;;0.28;0.20;;;;;;;;;;2081404;28;20037;-79
2022/04/10 07:48:44;;;;;;;0.50;0.30;;;;;;;;;;2090664;28;20033;-79
2022/04/10 07:50:04;;;;;;;0.70;0.30;;;;;;;;;;2082422;28;20113;-80
2022/04/10 07:51:23;;;;;;;0.50;0.30;;;;;;;;;;2079925;28;20026;-79
2022/04/10 07:52:41;;;;;;;3.22;0.43;;;;;;;;;;2087180;28;20506;-79
2022/04/10 07:54:00;;;;;;;1.20;0.20;;;;;;;;;;2083202;28;20495;-79
2022/04/10 07:55:21;;;;;;;0.20;0.20;;;;;;;;;;2089065;28;20037;-80
2022/04/10 07:56:43;;;;;;;0.30;0.30;;;;;;;;;;2082189;28;20025;-80
2022/04/10 07:58:02;;;;;;;0.25;0.20;;;;;;;;;;2082341;28;20029;-81
2022/04/10 07:59:23;;;;;;;7.60;0.60;;;;;;;;;;2079097;28;20021;-80
2022/04/10 08:00:42;;;;;;;1.65;0.20;;;;;;;;;;2088172;28;20032;-81
2022/04/10 08:02:02;;;;;;;0.70;0.32;;;;;;;;;;2081610;28;20038;-80
2022/04/10 08:03:22;;;;;;;0.20;0.20;;;;;;;;;;2078543;28;20049;-82
2022/04/10 08:04:41;;;;;;;1.10;0.50;;;;;;;;;;2077080;28;20109;-80